createdAt,value
2023-02-08T00:01:48.534Z,100208.00
2023-02-08T00:06:50.380Z,100198.50
2023-02-08T00:11:51.819Z,100207.31
2023-02-08T00:16:53.284Z,100208.28
2023-02-08T00:21:54.723Z,100209.16
2023-02-08T00:26:56.154Z,100207.44
2023-02-08T00:31:57.654Z,100200.44
2023-02-08T00:36:59.096Z,100200.31
2023-02-08T00:42:00.613Z,100199.34
2023-02-08T00:47:02.064Z,100186.38
2023-02-08T00:52:03.515Z,100195.09
2023-02-08T00:57:04.956Z,100184.63
2023-02-08T01:02:06.805Z,100182.94
2023-02-08T01:07:08.499Z,100177.72
2023-02-08T01:12:10.537Z,100175.09
2023-02-08T01:17:12.079Z,100173.44
2023-02-08T01:22:13.588Z,100176.06
2023-02-08T01:27:15.001Z,100164.72
2023-02-08T01:32:16.432Z,100157.72
2023-02-08T01:37:17.959Z,100162.91
2023-02-08T01:42:19.399Z,100162.00
2023-02-08T01:47:21.395Z,100155.91
2023-02-08T01:52:28.643Z,100155.91
2023-02-08T01:57:31.562Z,100140.31
2023-02-08T02:02:35.179Z,100145.56
2023-02-08T02:07:37.033Z,100149.97
2023-02-08T02:12:40.508Z,100142.16
2023-02-08T02:17:42.227Z,100140.34
2023-02-08T02:23:05.625Z,100137.63
2023-02-08T02:28:16.200Z,100134.13
2023-02-08T02:33:59.679Z,100134.25
2023-02-08T02:39:41.442Z,100130.94
2023-02-08T02:45:01.182Z,100131.84
2023-02-08T02:50:19.133Z,100132.69
2023-02-08T02:55:24.895Z,100131.72
2023-02-08T03:00:28.584Z,100131.66
2023-02-08T03:05:30.422Z,100124.72
2023-02-08T03:10:54.531Z,100122.97
2023-02-08T03:16:22.134Z,100124.66
2023-02-08T03:21:29.561Z,100123.75
2023-02-08T03:26:41.198Z,100139.34
2023-02-08T03:31:53.981Z,100137.56
2023-02-08T03:37:01.679Z,100141.81
2023-02-08T03:42:11.453Z,100146.19
2023-02-08T03:47:23.449Z,100142.84
2023-02-08T03:52:26.475Z,100158.59
2023-02-08T03:57:35.096Z,100160.50
2023-02-08T04:02:43.331Z,100161.78
2023-02-08T04:07:44.927Z,100169.97
2023-02-08T04:12:48.492Z,100175.38
2023-02-08T04:17:49.967Z,100161.59
2023-02-08T04:22:51.450Z,100165.97
2023-02-08T04:27:53.364Z,100153.00
2023-02-08T04:32:54.865Z,100158.09
2023-02-08T04:37:56.325Z,100156.22
2023-02-08T04:42:57.817Z,100156.16
2023-02-08T04:48:01.555Z,100153.50
2023-02-08T04:53:03.225Z,100156.09
2023-02-08T04:58:04.903Z,100149.19
2023-02-08T05:03:06.340Z,100143.13
2023-02-08T05:08:07.979Z,100147.53
2023-02-08T05:13:09.394Z,100139.00
2023-02-08T05:18:10.821Z,100143.50
2023-02-08T05:23:12.302Z,100141.91
2023-02-08T05:28:13.755Z,100140.09
2023-02-08T05:33:15.771Z,100151.31
2023-02-08T05:38:17.335Z,100145.25
2023-02-08T05:43:18.810Z,100145.19
2023-02-08T05:48:20.381Z,100157.31
2023-02-08T05:53:21.844Z,100150.44
2023-02-08T05:58:23.982Z,100150.34
2023-02-08T06:03:25.639Z,100150.34
2023-02-08T06:08:27.712Z,100153.88
2023-02-08T06:13:29.228Z,100158.25
2023-02-08T06:18:30.651Z,100158.38
2023-02-08T06:23:32.124Z,100162.00
2023-02-08T06:28:33.619Z,100165.59
2023-02-08T06:33:35.435Z,100170.00
2023-02-08T06:38:36.923Z,100178.63
2023-02-08T06:43:38.970Z,100177.75
2023-02-08T06:48:40.418Z,100185.53
2023-02-08T06:53:41.883Z,100188.00
2023-02-08T06:58:43.356Z,100194.75
2023-02-08T07:03:44.852Z,100192.78
2023-02-08T07:08:47.464Z,100200.41
2023-02-08T07:13:54.442Z,100196.88
2023-02-08T07:18:55.873Z,100199.38
2023-02-08T07:23:57.323Z,100197.44
2023-02-08T07:28:58.843Z,100193.78
2023-02-08T07:34:00.265Z,100199.72
2023-02-08T07:39:02.420Z,100196.13
2023-02-08T07:44:04.071Z,100196.03
2023-02-08T07:49:05.531Z,100191.47
2023-02-08T07:54:07.004Z,100186.88
2023-02-08T07:59:08.803Z,100192.69
2023-02-08T08:04:10.504Z,100192.41
2023-02-08T08:09:12.193Z,100199.94
2023-02-08T08:14:13.697Z,100209.34
2023-02-08T08:19:15.129Z,100203.13
2023-02-08T08:24:16.624Z,100210.78
2023-02-08T08:29:18.082Z,100208.03
2023-02-08T08:34:19.556Z,100210.50
2023-02-08T08:39:20.988Z,100214.66
2023-02-08T08:44:22.590Z,100214.53
2023-02-08T08:49:25.367Z,100223.97
2023-02-08T08:54:26.833Z,100228.88
2023-02-08T08:59:28.436Z,100222.56
2023-02-08T09:04:30.126Z,100223.09
2023-02-08T09:09:31.596Z,100228.91
2023-02-08T09:14:33.525Z,100225.97
2023-02-08T09:19:34.983Z,100225.63
2023-02-08T09:24:36.504Z,100226.97
2023-02-08T09:29:37.938Z,100229.25
2023-02-08T09:34:39.492Z,100225.31
2023-02-08T09:39:41.039Z,100226.66
2023-02-08T09:45:01.438Z,100235.00
2023-02-08T09:50:27.592Z,100242.47
2023-02-08T09:55:37.095Z,100246.44
2023-02-08T10:00:45.870Z,100243.38
2023-02-08T10:05:48.020Z,100242.84
2023-02-08T10:11:05.314Z,100236.25
2023-02-08T10:16:38.111Z,100231.31
2023-02-08T10:22:09.365Z,100220.19
2023-02-08T10:27:16.740Z,100234.50
2023-02-08T10:32:39.690Z,100233.13
2023-02-08T10:37:43.598Z,100230.22
2023-02-08T10:42:49.393Z,100221.25
2023-02-08T10:48:03.208Z,100215.63
2023-02-08T10:53:05.348Z,100204.81
2023-02-08T10:58:07.554Z,100196.72
2023-02-08T11:03:21.314Z,100195.75
2023-02-08T11:08:25.214Z,100184.38
2023-02-08T11:13:36.371Z,100175.66
2023-02-08T11:18:41.718Z,100173.72
2023-02-08T11:23:43.446Z,100163.03
2023-02-08T11:28:58.012Z,100175.22
2023-02-08T11:34:02.584Z,100181.31
2023-02-08T11:39:16.487Z,100180.47
2023-02-08T11:44:33.691Z,100181.16
2023-02-08T11:49:41.092Z,100180.25
2023-02-08T11:54:43.249Z,100173.03
2023-02-08T11:59:49.139Z,100173.47
2023-02-08T12:04:51.153Z,100173.28
2023-02-08T12:10:23.543Z,100175.66
2023-02-08T12:15:58.237Z,100172.78
2023-02-08T12:21:14.597Z,100168.09
2023-02-08T12:26:49.327Z,100158.94
2023-02-08T12:32:06.808Z,100148.13
2023-02-08T12:37:35.803Z,100150.53
2023-02-08T12:43:05.618Z,100145.97
2023-02-08T12:48:31.632Z,100149.38
2023-02-08T12:54:02.978Z,100158.03
2023-02-08T12:59:13.394Z,100149.25
2023-02-08T13:04:22.343Z,100149.00
2023-02-08T13:09:34.436Z,100135.63
2023-02-08T13:14:58.454Z,100126.69
2023-02-08T13:20:06.947Z,100109.91
2023-02-08T13:25:27.691Z,100103.72
2023-02-08T13:30:29.451Z,100092.50
2023-02-08T13:35:32.309Z,100088.59
2023-02-08T13:40:38.304Z,100084.31
2023-02-08T13:45:44.359Z,100077.56
2023-02-08T13:50:47.758Z,100072.25
2023-02-08T13:55:57.366Z,100083.97
2023-02-08T14:01:01.366Z,100081.19
2023-02-08T14:06:18.059Z,100082.53
2023-02-08T14:11:42.197Z,100087.59
2023-02-08T14:16:45.965Z,100097.47
2023-02-08T14:22:05.937Z,100095.53
2023-02-08T14:27:10.950Z,100085.31
2023-02-08T14:32:24.007Z,100093.09
2023-02-08T14:37:32.318Z,100091.78
2023-02-08T14:42:52.626Z,100084.63
2023-02-08T14:47:58.658Z,100085.97
2023-02-08T14:53:07.694Z,100085.50
2023-02-08T14:58:15.805Z,100086.66
2023-02-08T15:03:18.820Z,100086.66
2023-02-08T15:08:20.993Z,100085.06
2023-02-08T15:13:24.795Z,100080.03
2023-02-08T15:18:31.348Z,100072.28
2023-02-08T15:23:33.168Z,100054.03
2023-02-08T15:28:36.306Z,100045.75
2023-02-08T15:33:39.365Z,100049.72
2023-02-08T15:38:44.742Z,100050.03
2023-02-08T15:43:46.293Z,100045.94
2023-02-08T15:48:50.009Z,100046.25
2023-02-08T15:53:54.620Z,100039.59
2023-02-08T15:58:59.190Z,100033.06
2023-02-08T16:04:06.092Z,100039.63
2023-02-08T16:09:14.286Z,100023.38
2023-02-08T16:14:19.219Z,100024.47
2023-02-08T16:19:31.028Z,100034.31
2023-02-08T16:24:32.585Z,100036.19
2023-02-08T16:29:39.494Z,100033.03
2023-02-08T16:34:41.197Z,100032.47
2023-02-08T16:39:46.778Z,100026.66
2023-02-08T16:45:00.743Z,100019.81
2023-02-08T16:50:02.273Z,100012.28
2023-02-08T16:55:04.403Z,100008.97
2023-02-08T17:00:26.804Z,100012.72
2023-02-08T17:05:36.552Z,100011.13
2023-02-08T17:10:38.607Z,100009.50
2023-02-08T17:15:40.601Z,100012.31
2023-02-08T17:20:43.069Z,100008.88
2023-02-08T17:25:44.961Z,100016.84
2023-02-08T17:30:48.341Z,100010.81
2023-02-08T17:35:51.926Z,100014.34
2023-02-08T17:40:53.365Z,100005.72
2023-02-08T17:45:54.914Z,100002.34
2023-02-08T17:50:56.530Z,99991.97
2023-02-08T17:55:57.950Z,99992.00
2023-02-08T18:00:59.384Z,99989.56
2023-02-08T18:06:01.695Z,99984.44
2023-02-08T18:11:08.374Z,99982.69
2023-02-08T18:16:16.354Z,99969.81
2023-02-08T18:21:20.130Z,99972.63
2023-02-08T18:26:23.011Z,99972.84
2023-02-08T18:31:25.378Z,99978.19
2023-02-08T18:36:26.884Z,99974.78
2023-02-08T18:41:30.119Z,99972.38
2023-02-08T18:46:32.228Z,99972.50
2023-02-08T18:51:33.872Z,99978.69
2023-02-08T18:56:35.329Z,99978.69
2023-02-08T19:01:37.484Z,99966.44
2023-02-08T19:06:38.984Z,99945.50
2023-02-08T19:11:40.867Z,99939.41
2023-02-08T19:16:43.096Z,99932.47
2023-02-08T19:21:44.808Z,99922.03
2023-02-08T19:26:46.723Z,99909.06
2023-02-08T19:31:50.188Z,99899.56
2023-02-08T19:36:54.134Z,99896.25
2023-02-08T19:41:58.422Z,99889.59
2023-02-08T19:47:00.188Z,99876.81
2023-02-08T19:52:01.681Z,99864.75
2023-02-08T19:57:03.228Z,99873.47
2023-02-08T20:02:04.861Z,99874.31
2023-02-08T20:07:07.842Z,99868.13
2023-02-08T20:12:09.437Z,99860.34
2023-02-08T20:17:10.866Z,99849.91
2023-02-08T20:22:12.349Z,99847.31
2023-02-08T20:27:13.784Z,99841.34
2023-02-08T20:32:15.262Z,99827.56
2023-02-08T20:37:20.888Z,99829.38
2023-02-08T20:42:22.571Z,99827.78
2023-02-08T20:47:24.072Z,99820.09
2023-02-08T20:52:25.520Z,99818.38
2023-02-08T20:57:27.140Z,99803.47
2023-02-08T21:02:28.660Z,99799.06
2023-02-08T21:07:30.129Z,99782.53
2023-02-08T21:12:33.318Z,99778.16
2023-02-08T21:17:35.888Z,99778.25
2023-02-08T21:22:37.528Z,99778.34
2023-02-08T21:27:39.176Z,99760.13
2023-02-08T21:32:41.717Z,99748.84
2023-02-08T21:37:43.219Z,99734.09
2023-02-08T21:42:44.692Z,99726.16
2023-02-08T21:47:46.171Z,99723.53
2023-02-08T21:53:06.180Z,99724.38
2023-02-08T21:58:07.615Z,99717.41
2023-02-08T22:03:09.110Z,99704.34
2023-02-08T22:08:12.513Z,99692.19
2023-02-08T22:13:13.990Z,99690.63
2023-02-08T22:18:15.684Z,99691.97
2023-02-08T22:23:17.111Z,99699.38
2023-02-08T22:28:18.627Z,99696.06
2023-02-08T22:33:20.146Z,99697.09
2023-02-08T22:38:22.857Z,99690.28
2023-02-08T22:43:24.344Z,99691.16
2023-02-08T22:48:26.992Z,99674.63
2023-02-08T22:53:28.525Z,99673.69
2023-02-08T22:58:30.198Z,99667.44
2023-02-08T23:03:31.672Z,99669.94
2023-02-08T23:08:33.546Z,99671.50
2023-02-08T23:13:35.130Z,99662.59
2023-02-08T23:18:36.594Z,99659.06
2023-02-08T23:23:39.035Z,99663.56
2023-02-08T23:28:40.490Z,99664.19
2023-02-08T23:33:41.981Z,99658.72
2023-02-08T23:38:43.794Z,99653.28
2023-02-08T23:43:45.263Z,99655.69
2023-02-08T23:48:47.746Z,99657.25
2023-02-08T23:53:50.506Z,99648.25
2023-02-08T23:58:54.736Z,99644.78
